Time;durP1;ratioP1;P1;durP2;ratioP2;P2;SDS_P1;SDS_P2;PMS_P1;PMS_P2;Temp;Humidity;BMP_temperature;BMP_pressure;BME280_temperature;BME280_humidity;BME280_pressure;Samples;Min_cycle;Max_cycle;Signal;HPM_P1;HPM_P2
2023/02/03 00:00:27;;;;;;;;;3.00;3.00;;;;;11.73;100.00;102632.22;4964093;28;44846;-85
2023/02/03 00:02:53;;;;;;;;;1.00;1.00;;;;;11.69;100.00;102630.28;4962277;28;46938;-85
2023/02/03 00:05:19;;;;;;;;;2.00;2.00;;;;;11.72;100.00;102637.50;4963090;28;45824;-84
2023/02/03 00:07:44;;;;;;;;;2.00;2.00;;;;;11.72;100.00;102643.75;4964482;28;45694;-85
2023/02/03 00:10:10;;;;;;;;;5.00;3.00;;;;;11.69;100.00;102638.28;4982349;28;45416;-84
2023/02/03 00:12:35;;;;;;;;;1.33;1.33;;;;;11.71;100.00;102646.34;4980817;28;45667;-85
2023/02/03 00:15:01;;;;;;;;;2.33;2.33;;;;;11.72;100.00;102651.75;4962645;28;45480;-85
2023/02/03 00:17:26;;;;;;;;;1.33;1.33;;;;;11.67;100.00;102629.31;4981819;28;45430;-85
2023/02/03 00:19:52;;;;;;;;;1.00;1.00;;;;;11.70;100.00;102645.44;4979748;28;45401;-85
2023/02/03 00:22:17;;;;;;;;;1.00;1.00;;;;;11.70;100.00;102642.78;4979601;28;47204;-84
2023/02/03 00:24:43;;;;;;;;;2.00;0.33;;;;;11.73;100.00;102640.22;4981785;28;45583;-84
2023/02/03 00:27:08;;;;;;;;;2.00;2.00;;;;;11.71;100.00;102636.56;4980173;28;45353;-84
2023/02/03 00:29:33;;;;;;;;;3.00;3.00;;;;;11.71;100.00;102638.34;4981992;28;45630;-84
2023/02/03 00:31:59;;;;;;;;;1.00;1.00;;;;;11.66;100.00;102627.50;4963548;28;47620;-85
2023/02/03 00:34:29;;;;;;;;;2.00;2.00;;;;;11.65;100.00;102623.00;4963511;28;45369;-86
2023/02/03 00:36:55;;;;;;;;;1.00;1.00;;;;;11.60;100.00;102630.84;4982259;28;45324;-85
2023/02/03 00:39:20;;;;;;;;;4.00;2.00;;;;;11.61;100.00;102626.41;4963989;28;45381;-86
2023/02/03 00:41:46;;;;;;;;;2.00;2.00;;;;;11.60;100.00;102620.16;4982299;28;46165;-85
2023/02/03 00:44:12;;;;;;;;;2.33;2.33;;;;;11.59;100.00;102621.03;4966730;28;45432;-85
2023/02/03 00:46:38;;;;;;;;;2.00;2.00;;;;;11.57;100.00;102620.06;4988802;28;45352;-85
2023/02/03 00:49:03;;;;;;;;;2.00;2.00;;;;;11.56;100.00;102609.34;5006669;28;45481;-85
2023/02/03 00:51:31;;;;;;;;;2.00;1.00;;;;;11.60;100.00;102620.16;4988211;28;46597;-85
2023/02/03 00:53:57;;;;;;;;;3.00;3.00;;;;;11.54;100.00;102613.69;4988523;28;46209;-85
2023/02/03 00:56:22;;;;;;;;;2.00;2.00;;;;;11.55;100.00;102610.16;5006631;28;45686;-85
2023/02/03 00:58:48;;;;;;;;;3.67;2.00;;;;;11.55;100.00;102604.84;4990122;28;44939;-85
2023/02/03 01:01:13;;;;;;;;;2.00;2.00;;;;;11.58;100.00;102615.63;4990924;28;47898;-85
2023/02/03 01:03:38;;;;;;;;;4.67;3.00;;;;;11.50;100.00;102611.75;4990373;28;45554;-85
2023/02/03 01:06:14;;;;;;;;;4.00;2.67;;;;;11.53;100.00;102601.19;4990147;28;45222;-86
2023/02/03 01:08:40;;;;;;;;;2.33;2.33;;;;;11.43;100.00;102593.69;4989734;28;45332;-85
2023/02/03 01:11:12;;;;;;;;;2.00;1.33;;;;;11.49;100.00;102581.53;5005611;28;45430;-85
2023/02/03 01:13:38;;;;;;;;;1.00;1.00;;;;;11.48;100.00;102584.13;4990607;28;45454;-85
2023/02/03 01:16:07;;;;;;;;;1.00;1.00;;;;;11.50;100.00;102580.69;4987927;28;45439;-85
2023/02/03 01:18:32;;;;;;;;;2.67;2.67;;;;;11.47;100.00;102582.31;4989299;28;45404;-84
2023/02/03 01:20:57;;;;;;;;;0.00;0.00;;;;;11.47;100.00;102575.22;4988491;28;47161;-85
2023/02/03 01:23:23;;;;;;;;;3.33;3.33;;;;;11.50;100.00;102577.13;4987950;28;45493;-85
2023/02/03 01:25:48;;;;;;;;;2.33;1.33;;;;;11.39;100.00;102564.28;4988286;28;45824;-85
2023/02/03 01:28:13;;;;;;;;;1.00;1.00;;;;;11.44;100.00;102568.88;4987650;28;45425;-85
2023/02/03 01:30:39;;;;;;;;;1.00;1.00;;;;;11.40;100.00;102567.84;4988633;28;46861;-84
2023/02/03 01:33:04;;;;;;;;;3.00;3.00;;;;;11.46;100.00;102577.84;4988919;28;45786;-85
2023/02/03 01:35:29;;;;;;;;;2.00;2.00;;;;;11.36;100.00;102561.47;4987469;28;45947;-85
2023/02/03 01:37:55;;;;;;;;;0.00;0.00;;;;;11.41;100.00;102574.97;4969318;28;45455;-83
2023/02/03 01:40:20;;;;;;;;;2.33;2.00;;;;;11.29;100.00;102543.44;4968869;28;46758;-84
2023/02/03 01:42:46;;;;;;;;;2.67;1.00;;;;;11.40;100.00;102558.09;4970700;28;45360;-85
2023/02/03 01:45:11;;;;;;;;;1.00;1.00;;;;;11.40;100.00;102551.84;4969588;28;46030;-85
2023/02/03 01:47:52;;;;;;;;;1.67;1.67;;;;;11.38;100.00;102541.13;4970945;28;45620;-85
2023/02/03 01:50:19;;;;;;;;;1.33;1.33;;;;;11.38;100.00;102542.91;4970022;28;47948;-84
2023/02/03 01:52:52;;;;;;;;;3.00;2.00;;;;;11.39;100.00;102524.31;4969958;28;45445;-84
2023/02/03 01:55:22;;;;;;;;;1.00;1.00;;;;;11.41;100.00;102522.63;4969824;28;45396;-84
2023/02/03 01:57:54;;;;;;;;;1.33;1.33;;;;;11.40;100.00;102522.56;4965383;28;45434;-85
2023/02/03 02:00:20;;;;;;;;;1.00;1.00;;;;;11.33;100.00;102518.75;4982977;28;47101;-85
2023/02/03 02:02:47;;;;;;;;;2.00;2.00;;;;;11.39;100.00;102508.34;4985525;28;45459;-85
2023/02/03 02:05:23;;;;;;;;;2.00;2.00;;;;;11.48;100.00;102510.44;4985415;28;45439;-84
2023/02/03 02:07:50;;;;;;;;;2.33;2.00;;;;;11.40;100.00;102507.47;4983358;28;45444;-84
2023/02/03 02:10:16;;;;;;;;;1.00;1.00;;;;;11.32;100.00;102505.38;4964909;28;48192;-85
2023/02/03 02:12:43;;;;;;;;;2.00;2.00;;;;;11.35;100.00;102495.75;4966141;28;45440;-85
2023/02/03 02:15:09;;;;;;;;;1.00;1.00;;;;;11.35;100.00;102513.47;4966917;28;45483;-85
2023/02/03 02:17:40;;;;;;;;;1.33;1.33;;;;;11.46;100.00;102519.22;4985036;28;44868;-84
2023/02/03 02:20:24;;;;;;;;;1.00;1.00;;;;;11.50;100.00;102522.06;4971288;28;47275;-84
2023/02/03 02:23:14;;;;;;;;;1.00;1.00;;;;;11.48;100.00;102517.53;4966859;28;45422;-85
2023/02/03 02:25:42;;;;;;;;;1.00;0.67;;;;;11.50;100.00;102513.16;4964820;28;44949;-85
2023/02/03 02:28:34;;;;;;;;;2.00;1.67;;;;;11.48;100.00;102501.53;4965344;28;45440;-86
2023/02/03 02:31:33;;;;;;;;;2.00;0.67;;;;;11.35;100.00;102510.78;4964361;28;47851;-85
2023/02/03 02:34:13;;;;;;;;;2.67;2.00;;;;;11.18;100.00;102512.81;4964572;28;45719;-84
2023/02/03 02:37:04;;;;;;;;;2.00;0.00;;;;;11.11;100.00;102510.72;4983596;28;45432;-85
2023/02/03 02:39:54;;;;;;;;;1.33;1.33;;;;;11.09;100.00;102516.00;5002110;28;45328;-84
2023/02/03 02:42:55;;;;;;;;;1.00;1.00;;;;;11.00;100.00;102512.97;4999897;28;48754;-84
2023/02/03 02:45:25;;;;;;;;;1.00;1.00;;;;;10.87;100.00;102510.66;4980894;28;45351;-85
2023/02/03 02:47:54;;;;;;;;;2.00;1.00;;;;;10.85;100.00;102502.59;4999522;28;45397;-85
2023/02/03 02:50:25;;;;;;;;;1.33;1.33;;;;;10.92;100.00;102504.66;4983507;28;45406;-85
2023/02/03 02:52:53;;;;;;;;;1.00;1.00;;;;;10.99;100.00;102505.84;4986587;28;46766;-85
2023/02/03 02:55:32;;;;;;;;;3.00;1.00;;;;;11.07;100.00;102508.78;5002236;28;45458;-85
2023/02/03 02:58:04;;;;;;;;;1.00;1.00;;;;;11.09;100.00;102504.44;4983648;28;45510;-85
2023/02/03 03:00:32;;;;;;;;;1.00;1.00;;;;;11.08;100.00;102505.28;4983396;28;45587;-85
2023/02/03 03:03:16;;;;;;;;;1.00;1.00;;;;;11.14;100.00;102517.09;5001068;28;45391;-85
2023/02/03 03:05:47;;;;;;;;;0.33;0.33;;;;;11.11;100.00;102532.03;4983031;28;45360;-85
2023/02/03 03:08:15;;;;;;;;;0.33;0.33;;;;;10.98;100.00;102523.53;4999270;28;45866;-85
2023/02/03 03:14:06;;;;;;;;;0.00;0.00;;;;;11.13;100.00;102548.97;4999540;28;45633;-86
2023/02/03 03:16:36;;;;;;;;;1.00;1.00;;;;;11.13;100.00;102557.91;4982216;28;45490;-86
2023/02/03 03:19:11;;;;;;;;;1.00;1.00;;;;;11.15;100.00;102558.88;4982458;28;45433;-85
2023/02/03 03:21:42;;;;;;;;;1.00;0.00;;;;;11.13;100.00;102547.25;4983000;28;45478;-85
2023/02/03 03:24:11;;;;;;;;;2.00;2.00;;;;;11.13;100.00;102562.28;4983007;28;48901;-86
2023/02/03 03:26:45;;;;;;;;;0.00;0.00;;;;;11.22;100.00;102568.00;5000379;28;44892;-85
2023/02/03 03:29:13;;;;;;;;;2.00;2.00;;;;;11.21;100.00;102571.53;4983000;28;45363;-85
2023/02/03 03:31:40;;;;;;;;;0.67;0.67;;;;;11.13;100.00;102570.28;5001163;28;45297;-85
2023/02/03 03:34:08;;;;;;;;;0.67;0.67;;;;;11.22;100.00;102568.00;4995509;28;45671;-85
2023/02/03 03:37:14;;;;;;;;;0.00;0.00;;;;;11.29;100.00;102579.81;4962729;28;45780;-85
2023/02/03 03:40:00;;;;;;;;;0.33;0.33;;;;;11.29;100.00;102582.47;4962273;28;45490;-86
2023/02/03 03:42:57;;;;;;;;;1.00;1.00;;;;;11.23;100.00;102580.50;4965012;28;45501;-85
2023/02/03 03:45:27;;;;;;;;;2.67;0.00;;;;;11.17;100.00;102610.44;4980438;28;47217;-86
2023/02/03 03:48:02;;;;;;;;;1.00;1.00;;;;;11.17;100.00;102591.78;4962197;28;45746;-86
2023/02/03 03:50:33;;;;;;;;;1.00;1.00;;;;;11.20;100.00;102602.56;4980240;28;45361;-85
2023/02/03 03:53:01;;;;;;;;;0.00;0.00;;;;;11.24;100.00;102602.69;4963536;28;45402;-85
2023/02/03 03:55:31;;;;;;;;;0.00;0.00;;;;;11.25;100.00;102589.47;4963821;28;47509;-86
2023/02/03 03:58:06;;;;;;;;;2.00;2.00;;;;;11.25;100.00;102585.84;4965348;28;45402;-84
2023/02/03 04:00:35;;;;;;;;;0.00;0.00;;;;;11.26;100.00;102585.03;4964934;28;45440;-85
2023/02/03 04:03:23;;;;;;;;;1.00;1.00;;;;;11.29;100.00;102574.47;4967663;28;45289;-84
2023/02/03 04:05:48;;;;;;;;;0.00;0.00;;;;;11.20;100.00;102572.38;4984794;28;45228;-85
2023/02/03 04:08:14;;;;;;;;;1.00;1.00;;;;;11.20;100.00;102575.94;4966712;28;45403;-84
2023/02/03 04:10:41;;;;;;;;;0.00;0.00;;;;;11.20;100.00;102581.25;4982533;28;45511;-85
2023/02/03 04:13:09;;;;;;;;;1.00;1.00;;;;;11.24;100.00;102589.38;4964626;28;45438;-84
2023/02/03 04:15:34;;;;;;;;;0.00;0.00;;;;;11.20;100.00;102575.03;4962484;28;48201;-84
2023/02/03 04:18:02;;;;;;;;;0.00;0.00;;;;;11.24;100.00;102568.97;4980702;28;45641;-85
2023/02/03 04:20:28;;;;;;;;;2.00;1.00;;;;;11.28;100.00;102567.34;4963840;28;45341;-85
2023/02/03 04:22:54;;;;;;;;;1.00;1.00;;;;;11.22;100.00;102562.69;4966026;28;45702;-85
2023/02/03 04:25:20;;;;;;;;;0.00;0.00;;;;;11.24;100.00;102555.66;4964158;28;48328;-85
2023/02/03 04:27:45;;;;;;;;;1.00;1.00;;;;;11.25;100.00;102573.47;4982400;28;45424;-85
2023/02/03 04:30:12;;;;;;;;;1.00;1.00;;;;;11.25;100.00;102567.22;4982367;28;45473;-84
2023/02/03 04:32:37;;;;;;;;;1.00;1.00;;;;;11.23;100.00;102568.91;4966075;28;45432;-84
2023/02/03 04:35:05;;;;;;;;;1.00;1.00;;;;;11.23;100.00;102555.59;4983127;28;45360;-83
2023/02/03 04:37:30;;;;;;;;;0.00;0.00;;;;;11.15;100.00;102545.56;4965507;28;45958;-85
2023/02/03 04:39:57;;;;;;;;;1.00;1.00;;;;;11.18;100.00;102539.44;4964506;28;45454;-85
2023/02/03 04:42:23;;;;;;;;;0.00;0.00;;;;;11.16;100.00;102543.78;4963500;28;45434;-84
2023/02/03 04:44:49;;;;;;;;;1.33;0.00;;;;;11.01;100.00;102529.00;4981808;28;45552;-85
2023/02/03 04:47:15;;;;;;;;;1.00;1.00;;;;;11.15;100.00;102545.56;4963756;28;45755;-85
2023/02/03 04:49:41;;;;;;;;;0.00;0.00;;;;;11.06;100.00;102533.63;4964303;28;45855;-85
2023/02/03 04:52:07;;;;;;;;;1.00;1.00;;;;;11.15;100.00;102548.22;4963209;28;45596;-84
2023/02/03 04:54:33;;;;;;;;;2.00;1.00;;;;;11.09;100.00;102539.97;4982343;28;45396;-85
2023/02/03 04:56:58;;;;;;;;;0.00;0.00;;;;;11.13;100.00;102547.25;4964798;28;45221;-85
2023/02/03 04:59:24;;;;;;;;;0.67;0.00;;;;;11.11;100.00;102546.28;4963632;28;45526;-84
2023/02/03 05:01:49;;;;;;;;;0.00;0.00;;;;;11.09;100.00;102555.03;4963951;28;45488;-84
2023/02/03 05:04:15;;;;;;;;;0.00;0.00;;;;;11.11;100.00;102556.94;4982073;28;45612;-84
2023/02/03 05:06:40;;;;;;;;;0.67;0.67;;;;;11.09;100.00;102552.34;4963747;28;45681;-85
2023/02/03 05:09:06;;;;;;;;;0.00;0.00;;;;;11.16;100.00;102546.44;4963480;28;45770;-85
2023/02/03 05:11:31;;;;;;;;;2.00;0.00;;;;;11.17;100.00;102553.63;4981642;28;45856;-85
2023/02/03 05:13:57;;;;;;;;;1.00;0.00;;;;;11.18;100.00;102564.31;4981423;28;45345;-85
2023/02/03 05:16:23;;;;;;;;;1.00;1.00;;;;;11.21;100.00;102566.22;4964263;28;45310;-84
2023/02/03 05:18:48;;;;;;;;;0.00;0.00;;;;;11.22;100.00;102583.97;4982310;28;45850;-85
2023/02/03 05:21:14;;;;;;;;;0.00;0.00;;;;;11.19;100.00;102581.22;4964620;28;45816;-85
2023/02/03 05:23:39;;;;;;;;;1.00;1.00;;;;;11.15;100.00;102581.91;4963270;28;47303;-86
2023/02/03 05:26:05;;;;;;;;;1.00;1.00;;;;;11.17;100.00;102594.47;4962621;28;45698;-85
2023/02/03 05:28:30;;;;;;;;;0.25;0.25;;;;;11.09;100.00;102578.97;4979735;28;45436;-85
2023/02/03 05:30:59;;;;;;;;;1.00;1.00;;;;;11.22;100.00;102594.63;4963988;28;45320;-85
2023/02/03 05:33:25;;;;;;;;;1.00;1.00;;;;;11.14;100.00;102599.66;4984638;28;45492;-85
2023/02/03 05:35:57;;;;;;;;;0.00;0.00;;;;;11.21;100.00;102606.16;4972450;28;45229;-85
2023/02/03 05:38:23;;;;;;;;;0.50;0.50;;;;;11.25;100.00;102604.50;4987767;28;45394;-84
2023/02/03 05:43:34;;;;;;;;;1.00;1.00;;;;;11.26;100.00;102593.03;5003259;28;45674;-85
2023/02/03 05:46:04;;;;;;;;;2.00;1.33;;;;;11.29;100.00;102595.78;5005602;28;45390;-85
2023/02/03 05:48:29;;;;;;;;;0.33;0.33;;;;;11.19;100.00;102586.53;4985983;28;45474;-84
2023/02/03 05:50:55;;;;;;;;;1.00;1.00;;;;;11.27;100.00;102608.13;4988272;28;45875;-85
2023/02/03 05:53:21;;;;;;;;;0.33;0.33;;;;;11.22;100.00;102599.97;4984674;28;48181;-86
2023/02/03 05:55:46;;;;;;;;;2.00;1.00;;;;;11.27;100.00;102602.81;5003481;28;45882;-85
2023/02/03 05:58:11;;;;;;;;;1.00;1.00;;;;;11.25;100.00;102605.44;5005905;28;45463;-85
2023/02/03 06:00:37;;;;;;;;;1.00;1.00;;;;;11.21;100.00;102608.81;5006740;28;45326;-85
2023/02/03 06:03:03;;;;;;;;;1.00;1.00;;;;;11.26;100.00;102612.56;5002233;28;47388;-85
2023/02/03 06:05:30;;;;;;;;;3.00;3.00;;;;;11.24;100.00;102608.94;5020117;28;45864;-84
2023/02/03 06:07:55;;;;;;;;;1.00;1.00;;;;;11.25;100.00;102616.09;5020297;28;45292;-84
2023/02/03 06:10:21;;;;;;;;;0.00;0.00;;;;;11.25;100.00;102605.44;5003786;28;45769;-85
2023/02/03 06:12:47;;;;;;;;;0.00;0.00;;;;;11.25;100.00;102604.50;5019654;28;47167;-85
2023/02/03 06:15:13;;;;;;;;;4.00;1.00;;;;;11.06;100.00;102571.78;5021518;28;45428;-85
2023/02/03 06:17:44;;;;;;;;;0.67;0.67;;;;;11.27;100.00;102602.81;5004940;28;45398;-86
2023/02/03 06:20:11;;;;;;;;;1.00;1.00;;;;;11.21;100.00;102598.16;5023264;28;45403;-87
2023/02/03 06:26:00;;;;;;;;;2.33;1.33;;;;;10.99;100.00;102572.41;5007372;28;45358;-88
2023/02/03 06:28:33;;;;;;;;;2.00;1.00;;;;;11.08;100.00;102593.16;4974077;28;45676;-88
2023/02/03 06:30:59;;;;;;;;;0.33;0.33;;;;;11.14;100.00;102609.41;4990239;28;44945;-89
2023/02/03 06:33:56;;;;;;;;;2.67;2.67;;;;;10.92;100.00;102575.63;5006757;28;47182;-88
2023/02/03 06:36:32;;;;;;;;;1.00;1.00;;;;;11.19;100.00;102613.16;5018706;28;44741;-88
2023/02/03 06:38:58;;;;;;;;;1.00;1.00;;;;;10.95;100.00;102573.13;4971258;28;45357;-86
2023/02/03 06:41:27;;;;;;;;;1.33;1.33;;;;;11.13;100.00;102615.53;5004067;28;45511;-86
2023/02/03 06:43:53;;;;;;;;;2.00;2.00;;;;;11.10;100.00;102599.47;4998396;28;46752;-86
2023/02/03 06:46:18;;;;;;;;;1.67;1.67;;;;;11.06;100.00;102597.50;4998440;28;45306;-86
2023/02/03 06:48:43;;;;;;;;;1.67;1.67;;;;;11.00;100.00;102585.75;4982979;28;45671;-85
2023/02/03 06:51:09;;;;;;;;;1.00;1.00;;;;;11.01;100.00;102589.34;4983566;28;45455;-85
2023/02/03 06:53:34;;;;;;;;;0.33;0.00;;;;;11.06;100.00;102598.41;4984247;28;46815;-85
2023/02/03 06:56:01;;;;;;;;;1.00;1.00;;;;;10.98;100.00;102584.78;5009468;28;45663;-84
2023/02/03 06:58:26;;;;;;;;;3.00;3.00;;;;;10.97;100.00;102588.31;4989296;28;45302;-83
2023/02/03 07:00:55;;;;;;;;;2.00;2.00;;;;;10.99;100.00;102575.97;4986155;28;45531;-83
2023/02/03 07:03:20;;;;;;;;;2.00;2.00;;;;;10.96;100.00;102601.53;4987720;28;45365;-86
2023/02/03 07:05:45;;;;;;;;;3.00;2.00;;;;;10.94;100.00;102598.81;4989147;28;44844;-85
2023/02/03 07:08:11;;;;;;;;;1.00;1.00;;;;;10.84;100.00;102580.63;5004634;28;45481;-85
2023/02/03 07:10:37;;;;;;;;;3.00;3.00;;;;;10.95;100.00;102611.28;4986370;28;45590;-85
2023/02/03 07:13:05;;;;;;;;;1.00;1.00;;;;;11.00;100.00;102624.78;4984821;28;48123;-85
2023/02/03 07:15:30;;;;;;;;;3.33;1.00;;;;;10.88;100.00;102616.28;4986780;28;45415;-86
2023/02/03 07:17:56;;;;;;;;;4.00;2.33;;;;;10.98;100.00;102627.38;4985244;28;45706;-85
2023/02/03 07:20:50;;;;;;;;;2.00;2.00;;;;;11.11;100.00;102627.88;4987974;28;45438;-85
2023/02/03 07:23:15;;;;;;;;;2.00;2.00;;;;;11.05;100.00;102616.97;4958139;28;48039;-85
2023/02/03 07:25:44;;;;;;;;;2.00;2.00;;;;;11.17;100.00;102631.75;4985876;28;45351;-83
2023/02/03 07:28:10;;;;;;;;;2.00;2.00;;;;;11.08;100.00;102623.34;4984586;28;45384;-84
2023/02/03 07:30:35;;;;;;;;;3.67;2.67;;;;;10.99;100.00;102618.56;4986335;28;45463;-85
2023/02/03 07:33:40;;;;;;;;;3.67;3.67;;;;;11.17;100.00;102625.50;4983978;28;46890;-84
2023/02/03 07:36:14;;;;;;;;;4.00;4.00;;;;;11.14;100.00;102622.72;4984010;28;45944;-85
2023/02/03 07:38:41;;;;;;;;;3.00;3.00;;;;;11.07;100.00;102624.22;4985184;28;45494;-84
2023/02/03 07:41:06;;;;;;;;;4.00;2.67;;;;;11.11;100.00;102627.88;4989280;28;45444;-85
2023/02/03 07:43:32;;;;;;;;;7.00;7.00;;;;;11.12;100.00;102632.38;4989839;28;45403;-85
2023/02/03 07:45:58;;;;;;;;;6.33;6.33;;;;;11.08;100.00;102620.69;4987626;28;45442;-84
2023/02/03 07:48:24;;;;;;;;;6.00;4.00;;;;;11.00;100.00;102592.84;4988380;28;45465;-85
2023/02/03 07:50:49;;;;;;;;;3.00;3.00;;;;;11.07;100.00;102604.63;5007303;28;45388;-85
2023/02/03 07:53:18;;;;;;;;;8.00;8.00;;;;;11.12;100.00;102608.41;4972402;28;46520;-84
2023/02/03 07:55:44;;;;;;;;;7.00;6.33;;;;;11.06;100.00;102622.38;4969733;28;45589;-85
2023/02/03 07:58:10;;;;;;;;;4.00;4.00;;;;;11.04;100.00;102625.84;4971533;28;45493;-85
2023/02/03 08:00:36;;;;;;;;;4.00;4.00;;;;;10.90;100.00;102606.59;4987410;28;45477;-85
2023/02/03 08:03:02;;;;;;;;;7.67;6.33;;;;;11.13;100.00;102634.19;4969608;28;46819;-85
2023/02/03 08:05:29;;;;;;;;;10.00;8.33;;;;;11.01;100.00;102603.56;4970737;28;45435;-85
2023/02/03 08:08:00;;;;;;;;;5.67;4.33;;;;;11.15;100.00;102619.19;4973013;28;45438;-84
2023/02/03 08:10:34;;;;;;;;;8.33;8.33;;;;;11.25;100.00;102640.06;4994790;28;45483;-85
2023/02/03 08:13:00;;;;;;;;;8.00;8.00;;;;;11.07;100.00;102615.28;4972426;28;46991;-85
2023/02/03 08:15:25;;;;;;;;;12.00;12.00;;;;;11.36;100.00;102646.72;4970632;28;45777;-85
2023/02/03 08:17:52;;;;;;;;;12.67;9.33;;;;;11.45;100.00;102655.94;4972608;28;45626;-84
2023/02/03 08:20:20;;;;;;;;;12.67;12.67;;;;;11.35;100.00;102642.25;4974346;28;44886;-85
2023/02/03 08:22:46;;;;;;;;;6.33;5.00;;;;;11.24;100.00;102619.59;4969613;28;47284;-85
2023/02/03 08:25:11;;;;;;;;;4.33;4.33;;;;;11.45;100.00;102645.28;4969384;28;45515;-85
2023/02/03 08:27:37;;;;;;;;;9.00;9.00;;;;;11.56;100.00;102676.84;4969363;28;44701;-82
2023/02/03 08:30:08;;;;;;;;;5.67;5.67;;;;;11.62;100.00;102660.22;4986031;28;45491;-84
2023/02/03 08:35:34;;;;;;;;;3.33;3.33;;;;;11.61;100.00;102690.34;4979185;28;45371;-84
2023/02/03 08:38:32;;;;;;;;;5.00;4.00;;;;;11.35;100.00;102646.66;4969509;28;45487;-84
2023/02/03 08:40:57;;;;;;;;;3.67;2.33;;;;;11.37;100.00;102699.19;4968842;28;45485;-83
2023/02/03 08:43:24;;;;;;;;;3.67;3.00;;;;;11.25;100.00;102682.69;4973304;28;47135;-83
2023/02/03 08:45:49;;;;;;;;;2.67;2.67;;;;;11.24;100.00;102698.59;4996163;28;44856;-83
2023/02/03 08:48:14;;;;;;;;;4.00;4.00;;;;;11.21;100.00;102684.28;4971386;28;45500;-83
2023/02/03 08:54:03;;;;;;;;;5.00;4.00;;;;;11.30;100.00;102683.75;4984448;28;45414;-83
2023/02/03 08:56:32;;;;;;;;;2.00;2.00;;;;;11.35;100.00;102698.19;4992821;28;45511;-85
2023/02/03 08:59:00;;;;;;;;;4.00;4.00;;;;;11.33;100.00;102681.25;5000215;28;45611;-84
2023/02/03 09:01:25;;;;;;;;;3.00;3.00;;;;;11.39;100.00;102693.88;5004575;28;44877;-83
2023/02/03 09:04:18;;;;;;;;;5.00;4.00;;;;;11.47;100.00;102708.44;4980605;28;45442;-84
2023/02/03 09:10:40;;;;;;;;;3.00;3.00;;;;;11.18;100.00;102669.94;4996334;28;45399;-85
2023/02/03 09:13:30;;;;;;;;;;;;;;;;;;;;;
2023/02/03 09:16:09;;;;;;;;;;;;;;;;;;;;;
2023/02/03 09:18:46;;;;;;;;;;;;;;;;;;;;;
2023/02/03 09:28:03;;;;;;;;;3.00;3.00;;;;;11.78;100.00;102691.06;4987347;28;45390;-82
2023/02/03 09:30:32;;;;;;;;;4.33;3.33;;;;;11.80;100.00;102687.59;4958394;28;45552;-82
2023/02/03 09:32:57;;;;;;;;;6.67;5.33;;;;;11.79;100.00;102685.78;4992429;28;46638;-82
2023/02/03 09:35:28;;;;;;;;;3.00;3.00;;;;;11.88;100.00;102674.59;4992016;28;45531;-83
2023/02/03 09:41:24;;;;;;;;;3.00;3.00;;;;;12.05;100.00;102709.03;4904966;28;44860;-83
2023/02/03 09:44:16;;;;;;;;;3.00;3.00;;;;;12.12;100.00;102697.75;4896456;29;45471;-83
2023/02/03 09:46:53;;;;;;;;;4.00;4.00;;;;;11.94;100.00;102688.19;4898850;28;45541;-83
2023/02/03 09:49:49;;;;;;;;;3.67;3.67;;;;;11.94;100.00;102720.19;4913853;28;48017;-83
2023/02/03 09:52:55;;;;;;;;;;;;;;;;;;;;;
2023/02/03 09:59:02;;;;;;;;;8.67;7.67;;;;;11.96;100.00;102672.28;4911695;28;45545;-85
2023/02/03 10:02:08;;;;;;;;;10.67;10.67;;;;;12.28;100.00;102692.19;4893896;29;47002;-84
2023/02/03 10:04:56;;;;;;;;;5.00;5.00;;;;;12.40;100.00;102691.72;4905699;28;46057;-84
2023/02/03 10:07:33;;;;;;;;;8.67;6.00;;;;;12.61;100.00;102710.31;4859984;29;44821;-83
2023/02/03 10:13:37;;;;;;;;;14.00;10.00;;;;;12.58;100.00;102680.81;4849930;29;45517;-84
2023/02/03 10:16:21;;;;;;;;;14.33;13.00;;;;;12.89;100.00;102725.59;4856513;29;45921;-84
2023/02/03 10:19:19;;;;;;;;;30.33;26.33;;;;;12.74;100.00;102698.31;4919396;28;45890;-84
2023/02/03 10:21:50;;;;;;;;;25.33;25.33;;;;;12.91;100.00;102718.53;4929142;28;45587;-85
2023/02/03 10:24:48;;;;;;;;;9.33;9.33;;;;;13.16;100.00;102722.09;4941282;28;46965;-84
2023/02/03 10:27:22;;;;;;;;;17.67;16.00;;;;;13.02;100.00;102685.09;4922313;28;46126;-84
2023/02/03 10:30:01;;;;;;;;;19.00;17.00;;;;;12.92;100.00;102671.38;4925992;28;45315;-85
2023/02/03 10:32:27;;;;;;;;;21.33;17.33;;;;;13.08;100.00;102721.81;4933854;28;45473;-84
2023/02/03 10:34:53;;;;;;;;;13.33;13.00;;;;;13.10;100.00;102727.22;4924681;28;46869;-83
2023/02/03 10:37:37;;;;;;;;;9.33;7.33;;;;;13.16;100.00;102730.09;4946539;28;45425;-83
2023/02/03 10:40:06;;;;;;;;;6.00;6.00;;;;;13.09;100.00;102733.38;4906921;28;45476;-85
2023/02/03 10:45:37;;;;;;;;;9.00;9.00;;;;;12.78;100.00;102701.16;4969726;28;45226;-83
2023/02/03 10:48:08;;;;;;;;;6.33;6.00;;;;;12.78;100.00;102727.84;5002179;28;45416;-84
2023/02/03 10:50:37;;;;;;;;;10.00;6.00;;;;;12.73;100.00;102725.88;4972671;28;45559;-84
2023/02/03 10:53:33;;;;;;;;;4.00;4.00;;;;;12.93;100.00;102737.31;4991540;28;45190;-85
2023/02/03 10:56:08;;;;;;;;;4.00;4.00;;;;;13.02;100.00;102726.94;4951382;28;47108;-83
2023/02/03 10:58:36;;;;;;;;;5.67;3.67;;;;;12.86;100.00;102674.72;4975360;28;45452;-82
2023/02/03 11:01:13;;;;;;;;;9.00;9.00;;;;;13.35;100.00;102727.25;4997575;28;44790;-83
2023/02/03 11:04:03;;;;;;;;;7.67;7.67;;;;;13.50;100.00;102720.63;4990689;28;45753;-83
2023/02/03 11:06:32;;;;;;;;;4.00;4.00;;;;;13.47;100.00;102708.06;4969967;28;47094;-84
2023/02/03 11:08:59;;;;;;;;;9.00;9.00;;;;;13.43;100.00;102713.22;4991224;28;45371;-83
2023/02/03 11:11:33;;;;;;;;;4.00;3.67;;;;;13.44;100.00;102720.41;4972246;28;45420;-84
2023/02/03 11:14:01;;;;;;;;;4.00;4.00;;;;;13.43;100.00;102719.47;4988708;28;45406;-84
2023/02/03 11:16:42;;;;;;;;;4.33;4.00;;;;;13.17;100.00;102681.16;4991363;28;46699;-82
2023/02/03 11:19:19;;;;;;;;;2.00;1.00;;;;;13.19;100.00;102703.50;4990606;28;45423;-82
2023/02/03 11:22:29;;;;;;;;;;;;;;;;;;;;;
2023/02/03 11:31:54;;;;;;;;;7.00;7.00;;;;;13.02;100.00;102722.50;4989822;28;44679;-83
2023/02/03 11:42:16;;;;;;;;;10.00;8.67;;;;;12.96;100.00;102706.25;4950534;28;45377;-83
2023/02/03 11:48:30;;;;;;;;;11.00;11.00;;;;;13.02;100.00;102711.81;4954002;28;45353;-83
2023/02/03 11:51:15;;;;;;;;;4.00;4.00;;;;;12.95;100.00;102709.78;4950407;28;45627;-82
2023/02/03 11:54:09;;;;;;;;;7.00;5.67;;;;;13.04;100.00;102714.53;4957209;28;46980;-84
2023/02/03 11:56:45;;;;;;;;;17.67;17.67;;;;;12.93;100.00;102679.44;4981380;28;45955;-77
2023/02/03 11:59:34;;;;;;;;;11.33;10.00;;;;;13.15;100.00;102699.81;4954440;28;45354;-74
2023/02/03 12:02:50;;;;;;;;;30.33;28.33;;;;;13.31;100.00;102703.97;4958166;28;45480;-74
2023/02/03 12:05:36;;;;;;;;;9.33;9.33;;;;;13.51;100.00;102698.34;4909419;28;47317;-73
2023/02/03 12:08:23;;;;;;;;;21.00;20.00;;;;;13.64;100.00;102695.25;4905221;28;46029;-73
2023/02/03 12:11:05;;;;;;;;;10.67;10.00;;;;;13.84;100.00;102684.31;4899454;28;45572;-76
2023/02/03 12:13:50;;;;;;;;;11.00;8.33;;;;;13.94;100.00;102681.06;4912235;28;45526;-75
2023/02/03 12:16:16;;;;;;;;;7.67;7.67;;;;;13.90;100.00;102693.41;4935716;28;46289;-73
2023/02/03 12:19:10;;;;;;;;;8.67;7.00;;;;;13.96;100.00;102687.34;4927267;28;45952;-75
2023/02/03 12:21:43;;;;;;;;;24.33;20.00;;;;;13.97;100.00;102687.38;4912836;28;45398;-76
2023/02/03 12:24:25;;;;;;;;;18.33;16.67;;;;;14.04;100.00;102677.81;4924104;28;45507;-76
2023/02/03 12:27:35;;;;;;;;;6.00;4.00;;;;;14.13;100.00;102661.09;4929979;28;47930;-75
2023/02/03 12:30:10;;;;;;;;;4.00;4.00;;;;;14.16;100.00;102662.13;4916284;28;45817;-74
2023/02/03 12:32:46;;;;;;;;;53.33;39.33;;;;;14.16;100.00;102659.44;4934796;28;45428;-74
2023/02/03 12:35:22;;;;;;;;;5.00;5.00;;;;;14.25;100.00;102648.09;4934095;28;45571;-74
2023/02/03 12:42:16;;;;;;;;;7.67;5.67;;;;;14.44;100.00;102646.88;4985244;28;44886;-83
2023/02/03 12:52:22;;;;;;;;;7.00;6.00;;;;;14.51;100.00;102638.13;4961230;28;45750;-83
2023/02/03 13:09:21;;;;;;;;;;;;;;;;;;;;;